هرات, افغانستان

06:14 AM AFT on مارس 28, 2015 (GMT +0430)
Herat | | Change Station
CLOSE
Current Station
Airport
Location: Herat,
Elevation: 3163 ft
Nearby Weather Stations

Elev 3163 ft 34.21 °N, 62.23 °E | Updated 50 minutes ago

Scattered Clouds
ابرهای پراکنده
43 °F
Feels Like 41 °F
N
4
باد متغير باد from NNW

امروز
High -- | Low -- °F
--% Chance of Precip.
دیروز
High -- | Low -- °F
Precip. -- در
6:14 AM 6:38 PM
ربع اول, 57% visible
فشار 30.09 در
ديد 6.2 مايل، ميل (در برابر كيلومتر
ابری ابرهای پراکنده 5500 ft
باد سرد 41 °F
قطره شبنم 36 °F
رطوبت 76%
بارش باران 0.00 در
برف عمیق Not available.
مادون قرمز 0 out of 12
Pollen Not available.
تمیزی هوا Not available.
Flu Activity Not available.
METAR OAHR 280054Z AUTO 34003KT 9999 SCT055 06/02 Q1019

More Conditions Fewer Conditions

فشار 30.09 در
ديد 6.2 مايل، ميل (در برابر كيلومتر
ابری ابرهای پراکنده 5500 ft
باد سرد 41 °F
قطره شبنم 36 °F
رطوبت 76%
بارش باران 0.00 در
برف عمیق Not available.
مادون قرمز 0 out of 12
Pollen Not available.
تمیزی هوا Not available.
Flu Activity Not available.
METAR OAHR 280054Z AUTO 34003KT 9999 SCT055 06/02 Q1019

More Conditions Fewer Conditions

10-Day Weather Forecast

Almanac

ستاره شناسی

Mar. 28, 2015 Rise Set
وقت حقیقی
تاریک و روشن اجتماعی
تاریک روشن دریایی
شفق و فلق نجومی
ماه
میزان روشنایی روز
طول روز
Tomorrow will be .
, % of the Moon is Illuminated

Today's Extremes

Country Highs Country Lows

Community

WunderPhotos

Upload Photos

1,808,911 photos uploaded!

WunderBlogs® & News

Nearby

تمیزی هوا

  تمیزی هوا AQ Index آلاینده
Not available.

عمق برف

Station Depth Elevation

Earthquake Activity

شهر Distance Mag. Time & Date
Minimum magnitude displayed is 2.5.

Coastal Water Temperatures

منطقه درجه حرارت

Stations

Nearby Weather Stations

Station Location دما باد سرد قطره شبنم رطوبت باد Precip. Elev ارتقا دادن Type